Time;durP1;ratioP1;P1;durP2;ratioP2;P2;SDS_P1;SDS_P2;PMS_P1;PMS_P2;Temp;Humidity;BMP_temperature;BMP_pressure;BME280_temperature;BME280_humidity;BME280_pressure;Samples;Min_cycle;Max_cycle;Signal;HPM_P1;HPM_P2
2021/12/17 00:00:19;;;;;;;4.68;1.80;;;;;;;;;;6141149;23;20013;-81
2021/12/17 00:05:19;;;;;;;2.70;1.58;;;;;;;;;;6149620;23;20458;-74
2021/12/17 00:07:46;;;;;;;3.50;1.63;;;;;;;;;;6144870;23;20006;-79
2021/12/17 00:10:15;;;;;;;3.22;1.73;;;;;;;;;;6143082;23;20080;-74
2021/12/17 00:12:41;;;;;;;4.13;1.58;;;;;;;;;;6141523;23;20032;-81
2021/12/17 00:15:08;;;;;;;3.40;1.70;;;;;;;;;;6142928;23;20033;-76
2021/12/17 00:17:38;;;;;;;4.05;1.50;;;;;;;;;;6144593;23;20075;-78
2021/12/17 00:51:29;;;;;;;2.90;1.48;;;;;;;;;;6147987;23;20072;-78
2021/12/17 00:53:21;;;;;;;2.10;1.70;;;;;;;;;;6143836;23;20001;-74
2021/12/17 00:55:47;;;;;;;2.40;1.50;;;;;;;;;;6147788;23;20021;-81
2021/12/17 00:58:13;;;;;;;2.42;1.48;;;;;;;;;;6147748;23;20024;-75
2021/12/17 01:00:40;;;;;;;5.45;2.00;;;;;;;;;;6147359;23;20009;-80
2021/12/17 01:03:06;;;;;;;3.00;1.75;;;;;;;;;;6147286;23;20006;-81
2021/12/17 01:05:32;;;;;;;2.58;1.60;;;;;;;;;;6146951;23;20009;-78
2021/12/17 01:08:01;;;;;;;2.67;1.60;;;;;;;;;;6145552;23;20427;-79
2021/12/17 01:10:32;;;;;;;6.90;1.80;;;;;;;;;;6146354;23;20016;-76
2021/12/17 01:12:58;;;;;;;3.35;1.77;;;;;;;;;;6147283;23;20002;-80
2021/12/17 01:15:26;;;;;;;3.25;1.73;;;;;;;;;;6147453;23;20469;-80
2021/12/17 01:17:56;;;;;;;2.70;1.80;;;;;;;;;;6147675;23;20002;-80
2021/12/17 01:36:21;;;;;;;2.85;1.50;;;;;;;;;;6149289;23;20017;-80
2021/12/17 01:42:01;;;;;;;2.95;1.63;;;;;;;;;;6149756;23;20021;-75
2021/12/17 01:44:28;;;;;;;3.47;1.48;;;;;;;;;;6147592;23;20005;-82
2021/12/17 01:46:54;;;;;;;2.40;1.60;;;;;;;;;;6148701;23;20005;-80
2021/12/17 02:00:07;;;;;;;2.35;1.83;;;;;;;;;;6159397;23;20108;-74
2021/12/17 02:02:40;;;;;;;3.13;1.73;;;;;;;;;;6149261;23;20008;-77
2021/12/17 02:05:07;;;;;;;3.17;1.85;;;;;;;;;;6148260;23;20088;-74
2021/12/17 02:07:33;;;;;;;2.78;1.77;;;;;;;;;;6147992;23;20338;-76
2021/12/17 02:28:58;;;;;;;1.95;1.45;;;;;;;;;;6147665;23;20088;-77
2021/12/17 02:31:28;;;;;;;4.05;1.77;;;;;;;;;;6148662;23;19997;-80
2021/12/17 02:34:01;;;;;;;2.67;1.63;;;;;;;;;;6148490;23;20001;-78
2021/12/17 02:36:31;;;;;;;4.57;1.88;;;;;;;;;;6147599;23;19998;-80
2021/12/17 02:47:22;;;;;;;5.32;2.05;;;;;;;;;;6147669;23;20087;-81
2021/12/17 02:49:49;;;;;;;3.05;1.88;;;;;;;;;;6148991;23;20472;-82
2021/12/17 02:52:15;;;;;;;6.45;2.15;;;;;;;;;;6146317;23;20471;-75
2021/12/17 02:54:42;;;;;;;6.28;2.13;;;;;;;;;;6147924;23;20005;-74
2021/12/17 02:57:10;;;;;;;4.22;2.60;;;;;;;;;;6147426;23;19997;-82
2021/12/17 02:59:37;;;;;;;4.18;2.83;;;;;;;;;;6148467;23;20026;-74
2021/12/17 03:02:04;;;;;;;3.75;2.92;;;;;;;;;;6148297;23;20076;-82
2021/12/17 03:04:31;;;;;;;2.95;2.25;;;;;;;;;;6121800;23;20089;-82
2021/12/17 03:06:58;;;;;;;3.55;2.78;;;;;;;;;;6119866;23;20017;-79
2021/12/17 03:09:45;;;;;;;3.25;2.42;;;;;;;;;;6146858;23;19997;-74
2021/12/17 03:12:18;;;;;;;3.38;2.30;;;;;;;;;;6148362;23;20013;-78
2021/12/17 03:14:56;;;;;;;5.47;2.65;;;;;;;;;;6148076;23;20304;-75
2021/12/17 03:25:41;;;;;;;4.13;2.60;;;;;;;;;;6148066;23;20072;-75
2021/12/17 03:28:07;;;;;;;3.67;2.38;;;;;;;;;;6148142;23;20016;-74
2021/12/17 03:30:34;;;;;;;4.90;2.20;;;;;;;;;;6148095;23;20088;-78
2021/12/17 03:33:00;;;;;;;2.92;2.40;;;;;;;;;;6146146;23;20426;-79
2021/12/17 03:35:26;;;;;;;3.63;2.42;;;;;;;;;;6148009;23;20449;-80
2021/12/17 03:37:52;;;;;;;3.13;2.28;;;;;;;;;;6121671;23;20013;-80
2021/12/17 03:40:20;;;;;;;9.48;2.75;;;;;;;;;;6145423;23;20665;-81
2021/12/17 03:42:49;;;;;;;2.85;2.22;;;;;;;;;;6148258;23;20004;-82
2021/12/17 03:45:16;;;;;;;4.80;2.63;;;;;;;;;;6148004;23;20056;-82
2021/12/17 03:47:42;;;;;;;2.85;1.98;;;;;;;;;;6147679;23;20449;-81
2021/12/17 03:50:09;;;;;;;3.58;2.70;;;;;;;;;;6147136;23;20497;-79
2021/12/17 03:52:35;;;;;;;4.32;2.60;;;;;;;;;;6144180;23;20001;-79
2021/12/17 03:55:01;;;;;;;4.25;2.90;;;;;;;;;;6146527;23;20002;-74
2021/12/17 03:57:28;;;;;;;3.70;2.60;;;;;;;;;;6147214;23;20431;-82
2021/12/17 03:59:54;;;;;;;6.30;2.78;;;;;;;;;;6147242;23;20024;-77
2021/12/17 04:02:20;;;;;;;3.55;2.45;;;;;;;;;;6143605;23;20005;-78
2021/12/17 04:04:46;;;;;;;3.47;2.13;;;;;;;;;;6140553;23;20048;-74
2021/12/17 04:07:12;;;;;;;3.47;2.30;;;;;;;;;;6142345;23;20005;-78
2021/12/17 04:09:38;;;;;;;5.38;2.53;;;;;;;;;;6141613;23;20017;-80
2021/12/17 04:12:10;;;;;;;8.82;2.90;;;;;;;;;;6142105;23;20001;-77
2021/12/17 04:14:44;;;;;;;4.68;2.42;;;;;;;;;;6142345;23;20002;-81
2021/12/17 04:17:10;;;;;;;3.63;2.50;;;;;;;;;;6141862;23;20121;-80
2021/12/17 04:19:37;;;;;;;5.40;2.53;;;;;;;;;;6139838;23;20048;-75
2021/12/17 04:22:04;;;;;;;4.10;2.28;;;;;;;;;;6142009;23;20045;-82
2021/12/17 04:24:30;;;;;;;3.25;2.58;;;;;;;;;;6142250;23;20540;-81
2021/12/17 04:26:57;;;;;;;4.57;2.20;;;;;;;;;;6141762;23;20048;-78
2021/12/17 04:29:24;;;;;;;7.25;2.58;;;;;;;;;;6141654;23;20001;-81
2021/12/17 04:31:54;;;;;;;4.20;2.47;;;;;;;;;;6140151;23;20012;-76
2021/12/17 04:34:20;;;;;;;3.63;2.53;;;;;;;;;;6142278;23;20006;-77
2021/12/17 04:36:49;;;;;;;3.88;2.58;;;;;;;;;;6141636;23;20048;-75
2021/12/17 04:39:17;;;;;;;3.60;3.13;;;;;;;;;;6142315;23;20005;-78
2021/12/17 04:42:08;;;;;;;4.22;2.75;;;;;;;;;;6141640;23;20029;-74
2021/12/17 04:44:37;;;;;;;3.17;2.17;;;;;;;;;;6140175;23;20081;-87
2021/12/17 04:57:47;;;;;;;4.40;2.55;;;;;;;;;;6139691;23;20016;-83
2021/12/17 05:00:16;;;;;;;3.63;2.63;;;;;;;;;;6141583;23;20021;-75
2021/12/17 05:02:46;;;;;;;3.42;2.60;;;;;;;;;;6142400;23;20005;-86
2021/12/17 05:05:13;;;;;;;3.60;2.03;;;;;;;;;;6141762;23;20602;-84
2021/12/17 05:07:44;;;;;;;3.40;2.63;;;;;;;;;;6141838;23;20563;-78
2021/12/17 05:10:27;;;;;;;4.40;2.78;;;;;;;;;;6141183;23;20025;-79
2021/12/17 05:18:27;;;;;;;3.63;2.75;;;;;;;;;;6141187;23;20021;-81
2021/12/17 05:21:02;;;;;;;7.43;3.60;;;;;;;;;;6141941;23;20013;-81
2021/12/17 05:23:31;;;;;;;3.30;2.67;;;;;;;;;;6143022;23;20633;-84
2021/12/17 05:25:59;;;;;;;4.68;3.05;;;;;;;;;;6142515;23;20009;-78
2021/12/17 05:28:26;;;;;;;4.65;3.08;;;;;;;;;;6141575;23;20032;-85
2021/12/17 05:30:54;;;;;;;4.32;2.95;;;;;;;;;;6142496;23;20289;-80
2021/12/17 05:33:21;;;;;;;5.97;3.25;;;;;;;;;;6141647;23;20002;-81
2021/12/17 05:35:48;;;;;;;5.53;3.88;;;;;;;;;;6139495;23;20005;-81
2021/12/17 05:38:15;;;;;;;5.22;3.53;;;;;;;;;;6139808;23;20020;-77
2021/12/17 05:40:41;;;;;;;4.78;3.08;;;;;;;;;;6141268;23;20044;-80
2021/12/17 05:43:08;;;;;;;5.43;3.22;;;;;;;;;;6142668;23;20006;-82
2021/12/17 05:45:37;;;;;;;5.20;3.25;;;;;;;;;;6116810;23;20406;-86
2021/12/17 05:48:05;;;;;;;5.80;3.88;;;;;;;;;;6142909;23;20012;-75
2021/12/17 05:50:31;;;;;;;17.13;4.18;;;;;;;;;;6143436;23;20032;-81
2021/12/17 05:52:57;;;;;;;10.65;3.97;;;;;;;;;;6139462;23;20017;-88
2021/12/17 05:55:24;;;;;;;4.80;3.25;;;;;;;;;;6146129;23;20006;-92
2021/12/17 05:57:52;;;;;;;4.85;3.15;;;;;;;;;;6146410;23;20005;-88
2021/12/17 06:00:19;;;;;;;5.03;3.50;;;;;;;;;;6146051;23;20101;-86
2021/12/17 06:02:45;;;;;;;4.03;2.80;;;;;;;;;;6146733;23;20467;-82
2021/12/17 06:05:11;;;;;;;11.05;4.28;;;;;;;;;;6145665;23;20094;-85
2021/12/17 06:07:37;;;;;;;5.18;3.38;;;;;;;;;;6142147;23;20009;-81
2021/12/17 06:10:05;;;;;;;5.55;3.35;;;;;;;;;;6142027;23;20100;-85
2021/12/17 06:12:31;;;;;;;5.45;4.22;;;;;;;;;;6142085;23;20012;-74
2021/12/17 06:14:58;;;;;;;7.13;3.40;;;;;;;;;;6141441;23;20029;-85
2021/12/17 06:17:24;;;;;;;5.70;3.28;;;;;;;;;;6141733;23;20002;-76
2021/12/17 06:19:50;;;;;;;4.70;3.60;;;;;;;;;;6139724;23;20453;-86
2021/12/17 06:22:17;;;;;;;6.53;3.80;;;;;;;;;;6141504;23;20004;-76
2021/12/17 06:24:45;;;;;;;6.18;3.55;;;;;;;;;;6141938;23;20037;-80
2021/12/17 06:27:15;;;;;;;6.88;3.67;;;;;;;;;;6141387;23;20012;-76
2021/12/17 06:29:42;;;;;;;5.55;3.40;;;;;;;;;;6143552;23;20013;-83
2021/12/17 06:32:08;;;;;;;6.90;3.38;;;;;;;;;;6145188;23;20052;-86
2021/12/17 06:34:35;;;;;;;6.00;3.75;;;;;;;;;;6145328;23;20104;-77
2021/12/17 06:37:01;;;;;;;5.28;4.00;;;;;;;;;;6142139;23;20006;-80
2021/12/17 06:39:28;;;;;;;88.43;8.30;;;;;;;;;;6142782;23;20327;-81
2021/12/17 06:41:54;;;;;;;6.57;3.70;;;;;;;;;;6144880;23;20033;-78
2021/12/17 06:44:24;;;;;;;8.23;3.63;;;;;;;;;;6142780;23;20001;-81
2021/12/17 06:54:55;;;;;;;5.72;3.53;;;;;;;;;;6117191;23;20049;-73
2021/12/17 07:10:54;;;;;;;7.53;3.47;;;;;;;;;;6142220;23;20029;-72
2021/12/17 07:24:46;;;;;;;4.63;3.30;;;;;;;;;;6152389;23;20423;-81
2021/12/17 07:39:51;;;;;;;4.82;3.63;;;;;;;;;;6152644;23;20025;-74
2021/12/17 07:42:17;;;;;;;7.57;4.22;;;;;;;;;;6142306;23;20063;-74
2021/12/17 07:44:44;;;;;;;5.45;3.65;;;;;;;;;;6140327;23;20009;-77
2021/12/17 07:47:10;;;;;;;4.43;3.45;;;;;;;;;;6142116;23;20006;-78
2021/12/17 07:49:36;;;;;;;6.25;3.72;;;;;;;;;;6142129;23;19993;-75
2021/12/17 07:52:02;;;;;;;8.02;3.25;;;;;;;;;;6142188;23;20009;-74
2021/12/17 07:54:28;;;;;;;6.47;3.05;;;;;;;;;;6140109;23;20390;-72
2021/12/17 07:56:54;;;;;;;5.40;3.35;;;;;;;;;;6141800;23;20023;-78
2021/12/17 07:59:20;;;;;;;6.93;3.85;;;;;;;;;;6142229;23;20084;-74
2021/12/17 08:01:47;;;;;;;7.47;4.68;;;;;;;;;;6142841;23;20005;-80
2021/12/17 08:04:13;;;;;;;4.65;3.30;;;;;;;;;;6141979;23;20055;-73
2021/12/17 08:06:39;;;;;;;6.55;3.85;;;;;;;;;;6140467;23;20009;-76
2021/12/17 08:09:05;;;;;;;5.75;3.60;;;;;;;;;;6142020;23;20395;-75
2021/12/17 08:11:38;;;;;;;4.85;3.25;;;;;;;;;;6142006;23;20005;-80
2021/12/17 08:14:08;;;;;;;4.53;3.15;;;;;;;;;;6141723;23;19998;-79
2021/12/17 08:16:43;;;;;;;5.57;3.40;;;;;;;;;;6114088;23;20413;-73
2021/12/17 08:27:25;;;;;;;;;;;;;;;;;;6152400;23;20009;-80
2021/12/17 08:32:18;;;;;;;7.90;3.97;;;;;;;;;;6142887;23;20024;-79
2021/12/17 08:34:44;;;;;;;7.28;3.80;;;;;;;;;;6140196;23;20389;-73
2021/12/17 08:37:10;;;;;;;6.55;3.78;;;;;;;;;;6139637;23;19997;-74
2021/12/17 08:39:38;;;;;;;5.45;4.18;;;;;;;;;;6137377;23;20010;-74
2021/12/17 08:42:04;;;;;;;5.90;3.60;;;;;;;;;;6140225;23;20470;-79
2021/12/17 08:44:30;;;;;;;4.53;3.55;;;;;;;;;;6117502;23;20010;-78
2021/12/17 08:46:56;;;;;;;4.65;3.78;;;;;;;;;;6143971;23;20454;-78
2021/12/17 08:49:23;;;;;;;5.65;3.42;;;;;;;;;;6143392;23;19998;-79
2021/12/17 08:51:49;;;;;;;4.55;3.92;;;;;;;;;;6141968;23;20383;-73
2021/12/17 08:54:16;;;;;;;4.97;3.17;;;;;;;;;;6144228;23;20021;-78
2021/12/17 08:56:43;;;;;;;5.45;3.55;;;;;;;;;;6143371;23;20013;-78
2021/12/17 08:59:10;;;;;;;5.72;3.45;;;;;;;;;;6143991;23;20052;-73
2021/12/17 09:01:36;;;;;;;5.80;3.00;;;;;;;;;;6143828;23;20006;-78
2021/12/17 09:04:03;;;;;;;5.22;3.20;;;;;;;;;;6141387;23;20081;-84
2021/12/17 09:06:29;;;;;;;4.72;3.42;;;;;;;;;;6144043;23;20009;-79
2021/12/17 09:08:56;;;;;;;4.35;3.13;;;;;;;;;;6143804;23;19997;-80
2021/12/17 09:11:26;;;;;;;5.32;3.10;;;;;;;;;;6143381;23;19998;-81
2021/12/17 09:13:53;;;;;;;4.85;2.92;;;;;;;;;;6143606;23;20005;-81
2021/12/17 09:16:20;;;;;;;4.95;3.30;;;;;;;;;;6141638;23;20001;-76
2021/12/17 09:18:50;;;;;;;4.32;3.50;;;;;;;;;;6143333;23;20014;-83
2021/12/17 09:21:17;;;;;;;6.60;3.20;;;;;;;;;;6143115;23;20063;-82
2021/12/17 09:23:43;;;;;;;5.43;3.38;;;;;;;;;;6143586;23;20024;-79
2021/12/17 09:26:13;;;;;;;6.60;3.42;;;;;;;;;;6141329;23;20410;-81
2021/12/17 09:28:39;;;;;;;6.47;3.42;;;;;;;;;;6143224;23;20009;-78
2021/12/17 09:31:06;;;;;;;5.00;3.97;;;;;;;;;;6116973;23;20009;-75
2021/12/17 09:33:33;;;;;;;5.15;3.65;;;;;;;;;;6118971;23;20017;-84
2021/12/17 09:35:59;;;;;;;6.97;4.13;;;;;;;;;;6117399;23;20474;-76
2021/12/17 09:38:25;;;;;;;5.97;3.42;;;;;;;;;;6143710;23;20005;-79
2021/12/17 09:40:51;;;;;;;6.47;3.45;;;;;;;;;;6142037;23;20045;-78
2021/12/17 09:43:18;;;;;;;5.90;3.20;;;;;;;;;;6143877;23;20001;-79
2021/12/17 09:45:44;;;;;;;5.60;3.45;;;;;;;;;;6143576;23;20510;-80
2021/12/17 09:48:13;;;;;;;5.32;3.47;;;;;;;;;;6117307;23;20222;-79
2021/12/17 09:50:39;;;;;;;5.38;3.63;;;;;;;;;;6143182;23;20002;-80
2021/12/17 09:53:06;;;;;;;5.95;3.10;;;;;;;;;;6139753;23;20047;-76
2021/12/17 09:55:32;;;;;;;4.25;3.40;;;;;;;;;;6142640;23;20013;-79
2021/12/17 09:57:58;;;;;;;4.75;3.03;;;;;;;;;;6143426;23;20076;-77
2021/12/17 10:00:26;;;;;;;5.18;3.20;;;;;;;;;;6142752;23;20382;-76
2021/12/17 10:02:53;;;;;;;5.32;3.60;;;;;;;;;;6143188;23;20006;-73
2021/12/17 10:05:27;;;;;;;5.05;3.70;;;;;;;;;;6142560;23;20009;-78
2021/12/17 10:07:55;;;;;;;5.43;3.38;;;;;;;;;;6141083;23;20002;-74
2021/12/17 10:10:21;;;;;;;5.07;3.80;;;;;;;;;;6142023;23;20012;-77
2021/12/17 10:12:48;;;;;;;4.47;3.35;;;;;;;;;;6116698;23;20008;-74
2021/12/17 10:15:15;;;;;;;5.18;3.38;;;;;;;;;;6141207;23;20005;-75
2021/12/17 10:18:02;;;;;;;3.88;2.63;;;;;;;;;;6143048;23;20005;-78
2021/12/17 10:20:32;;;;;;;7.90;3.75;;;;;;;;;;6142581;23;20673;-74
2021/12/17 10:23:00;;;;;;;7.93;3.50;;;;;;;;;;6140907;23;20005;-73
2021/12/17 10:25:27;;;;;;;5.35;3.45;;;;;;;;;;6142572;23;20052;-78
2021/12/17 10:28:03;;;;;;;7.20;3.75;;;;;;;;;;6143263;23;20006;-78
2021/12/17 10:30:29;;;;;;;6.30;3.53;;;;;;;;;;6142486;23;19998;-74
2021/12/17 10:32:57;;;;;;;8.80;4.35;;;;;;;;;;6143022;23;20001;-77
2021/12/17 10:35:24;;;;;;;6.53;3.88;;;;;;;;;;6142906;23;20004;-79
2021/12/17 10:37:56;;;;;;;5.60;3.45;;;;;;;;;;6137622;23;20006;-73
2021/12/17 10:40:24;;;;;;;4.67;3.37;;;;;;;;;;6143451;23;20017;-73
2021/12/17 10:43:03;;;;;;;6.55;3.63;;;;;;;;;;6143127;23;20212;-74
2021/12/17 10:45:32;;;;;;;4.85;3.63;;;;;;;;;;6114873;23;20095;-73
2021/12/17 10:48:19;;;;;;;5.15;2.88;;;;;;;;;;6142554;23;20494;-78
2021/12/17 10:50:46;;;;;;;4.40;2.90;;;;;;;;;;6143322;23;20024;-74
2021/12/17 10:53:12;;;;;;;5.13;2.92;;;;;;;;;;6143556;23;20020;-73
2021/12/17 10:55:38;;;;;;;3.72;3.05;;;;;;;;;;6143272;23;20017;-72
2021/12/17 10:58:09;;;;;;;4.45;2.80;;;;;;;;;;6141126;23;20072;-72
2021/12/17 11:00:42;;;;;;;6.38;3.00;;;;;;;;;;6142154;23;20024;-73
2021/12/17 11:03:08;;;;;;;5.50;2.63;;;;;;;;;;6142882;23;20017;-73
2021/12/17 11:05:35;;;;;;;6.85;2.90;;;;;;;;;;6142249;23;20009;-73
2021/12/17 11:08:01;;;;;;;5.07;2.72;;;;;;;;;;6140519;23;20357;-84
2021/12/17 11:10:35;;;;;;;7.82;3.75;;;;;;;;;;6139553;23;20474;-76
2021/12/17 11:13:01;;;;;;;9.02;4.25;;;;;;;;;;6137967;23;20827;-77
2021/12/17 11:15:30;;;;;;;12.63;7.00;;;;;;;;;;6139607;23;20011;-72
2021/12/17 11:18:04;;;;;;;6.20;4.60;;;;;;;;;;6139797;23;20519;-75
2021/12/17 11:20:30;;;;;;;5.18;3.58;;;;;;;;;;6141268;23;20450;-81
2021/12/17 11:22:57;;;;;;;4.53;2.97;;;;;;;;;;6140886;23;20013;-80
2021/12/17 11:25:24;;;;;;;5.13;3.17;;;;;;;;;;6114865;23;20193;-73
2021/12/17 11:27:51;;;;;;;7.05;3.15;;;;;;;;;;6141508;23;20076;-74
2021/12/17 11:30:19;;;;;;;3.60;2.63;;;;;;;;;;6139741;23;20002;-77
2021/12/17 11:32:47;;;;;;;5.13;2.63;;;;;;;;;;6139985;23;20006;-73
2021/12/17 11:35:13;;;;;;;5.35;2.33;;;;;;;;;;6137407;23;20029;-76
2021/12/17 11:37:42;;;;;;;6.85;4.20;;;;;;;;;;6139130;23;20078;-81
2021/12/17 11:40:28;;;;;;;8.20;4.60;;;;;;;;;;6113314;23;20465;-75
2021/12/17 11:43:15;;;;;;;8.25;5.22;;;;;;;;;;6119241;23;20055;-73
2021/12/17 11:45:42;;;;;;;8.85;5.72;;;;;;;;;;6138580;23;20010;-74
2021/12/17 11:48:19;;;;;;;6.78;5.20;;;;;;;;;;6138521;23;20457;-75
2021/12/17 11:50:48;;;;;;;7.60;4.95;;;;;;;;;;6139790;23;20008;-73
2021/12/17 11:53:19;;;;;;;9.07;5.30;;;;;;;;;;6139239;23;20006;-77
2021/12/17 11:55:47;;;;;;;5.43;3.75;;;;;;;;;;6136971;23;20820;-78
2021/12/17 11:58:16;;;;;;;5.05;2.65;;;;;;;;;;6139099;23;20084;-75
2021/12/17 12:00:42;;;;;;;5.65;2.22;;;;;;;;;;6139213;23;20022;-76
2021/12/17 12:03:17;;;;;;;3.83;2.33;;;;;;;;;;6137521;23;20002;-79
2021/12/17 12:05:45;;;;;;;3.38;2.10;;;;;;;;;;6137213;23;20082;-74
2021/12/17 12:08:32;;;;;;;3.10;2.25;;;;;;;;;;6138697;23;20006;-74
2021/12/17 12:11:08;;;;;;;6.13;3.88;;;;;;;;;;6139902;23;20012;-80
2021/12/17 12:13:39;;;;;;;7.18;4.38;;;;;;;;;;6139237;23;20001;-84
2021/12/17 12:16:07;;;;;;;5.47;3.70;;;;;;;;;;6139507;23;20621;-77
2021/12/17 12:18:43;;;;;;;5.40;3.80;;;;;;;;;;6137396;23;19997;-78
2021/12/17 12:21:09;;;;;;;4.72;2.78;;;;;;;;;;6138500;23;20473;-73
2021/12/17 12:23:37;;;;;;;3.13;2.25;;;;;;;;;;6138891;23;20005;-77
2021/12/17 12:26:03;;;;;;;3.00;2.25;;;;;;;;;;6138777;23;20006;-79
2021/12/17 12:28:48;;;;;;;3.38;2.15;;;;;;;;;;6139521;23;20058;-73
2021/12/17 12:31:17;;;;;;;3.67;2.40;;;;;;;;;;6137522;23;20080;-78
2021/12/17 12:34:06;;;;;;;7.55;2.83;;;;;;;;;;6138735;23;20001;-73
2021/12/17 12:36:55;;;;;;;4.43;2.58;;;;;;;;;;6138805;23;20013;-73
2021/12/17 12:39:24;;;;;;;4.97;3.00;;;;;;;;;;6123607;23;20010;-73
2021/12/17 12:42:06;;;;;;;5.28;3.15;;;;;;;;;;6136853;23;20006;-76
2021/12/17 12:44:45;;;;;;;5.32;2.17;;;;;;;;;;6139084;23;20012;-73
2021/12/17 12:47:13;;;;;;;5.60;2.50;;;;;;;;;;6139473;23;20339;-76
2021/12/17 12:50:02;;;;;;;6.35;3.22;;;;;;;;;;6139067;23;20197;-79
2021/12/17 12:52:33;;;;;;;3.72;2.58;;;;;;;;;;6138909;23;20009;-75
2021/12/17 12:55:11;;;;;;;6.28;2.50;;;;;;;;;;6138567;23;20076;-74
2021/12/17 12:57:39;;;;;;;2.95;1.92;;;;;;;;;;6137067;23;20010;-79
2021/12/17 13:00:25;;;;;;;4.18;2.00;;;;;;;;;;6138357;23;20093;-73
2021/12/17 13:02:53;;;;;;;4.20;2.10;;;;;;;;;;6136353;23;20081;-75
2021/12/17 13:05:20;;;;;;;3.22;2.00;;;;;;;;;;6138988;23;20006;-76
2021/12/17 13:07:48;;;;;;;3.38;2.30;;;;;;;;;;6137091;23;20084;-80
2021/12/17 13:10:17;;;;;;;3.25;1.95;;;;;;;;;;6112811;23;20315;-74
2021/12/17 13:13:10;;;;;;;3.33;1.80;;;;;;;;;;6139293;23;20072;-74
2021/12/17 13:23:47;;;;;;;4.00;2.17;;;;;;;;;;6144927;23;20398;-73
2021/12/17 13:26:18;;;;;;;4.20;2.22;;;;;;;;;;6118118;23;20020;-73
2021/12/17 13:28:47;;;;;;;2.67;1.70;;;;;;;;;;6140255;23;20001;-74
2021/12/17 13:31:26;;;;;;;3.90;2.08;;;;;;;;;;6143043;23;20009;-73
2021/12/17 13:33:52;;;;;;;2.90;1.90;;;;;;;;;;6143300;23;20009;-73
2021/12/17 13:36:19;;;;;;;4.80;2.30;;;;;;;;;;6144270;23;20005;-74
2021/12/17 13:38:45;;;;;;;4.20;1.70;;;;;;;;;;6144021;23;20028;-75
2021/12/17 13:41:12;;;;;;;3.70;1.80;;;;;;;;;;6141705;23;20013;-76
2021/12/17 13:43:42;;;;;;;3.60;1.88;;;;;;;;;;6142166;23;19997;-77
2021/12/17 13:46:08;;;;;;;4.72;2.05;;;;;;;;;;6142959;23;20002;-79
2021/12/17 13:48:36;;;;;;;4.70;1.85;;;;;;;;;;6143277;23;20001;-79
2021/12/17 13:51:02;;;;;;;3.90;1.80;;;;;;;;;;6144154;23;20013;-80
2021/12/17 13:53:28;;;;;;;2.95;1.70;;;;;;;;;;6141826;23;20580;-74
2021/12/17 13:55:54;;;;;;;4.72;1.92;;;;;;;;;;6144036;23;20008;-81
2021/12/17 13:58:22;;;;;;;4.18;1.80;;;;;;;;;;6143549;23;20009;-78
2021/12/17 14:00:56;;;;;;;4.45;1.80;;;;;;;;;;6143249;23;20009;-78
2021/12/17 14:03:27;;;;;;;3.55;1.98;;;;;;;;;;6115838;23;20485;-81
2021/12/17 14:06:35;;;;;;;3.88;1.88;;;;;;;;;;6143317;23;20033;-73
2021/12/17 14:08:48;;;;;;;3.70;1.58;;;;;;;;;;6142112;23;20005;-81
2021/12/17 14:11:25;;;;;;;3.53;1.52;;;;;;;;;;6143362;23;20010;-73
2021/12/17 14:13:52;;;;;;;3.67;1.88;;;;;;;;;;6141716;23;20072;-77
2021/12/17 14:16:28;;;;;;;4.80;2.30;;;;;;;;;;6143186;23;20006;-74
2021/12/17 14:18:58;;;;;;;2.95;1.92;;;;;;;;;;6143224;23;20036;-77
2021/12/17 14:21:31;;;;;;;3.28;1.88;;;;;;;;;;6142979;23;20017;-76
2021/12/17 14:23:57;;;;;;;3.45;1.70;;;;;;;;;;6115565;23;20072;-76
2021/12/17 14:26:28;;;;;;;3.17;1.83;;;;;;;;;;6143106;23;20016;-78
2021/12/17 14:28:54;;;;;;;3.95;2.00;;;;;;;;;;6143053;23;20064;-75
2021/12/17 14:31:23;;;;;;;4.18;2.47;;;;;;;;;;6143279;23;20366;-73
2021/12/17 14:33:51;;;;;;;4.45;2.00;;;;;;;;;;6141557;23;20056;-79
2021/12/17 14:36:18;;;;;;;4.15;1.85;;;;;;;;;;6142920;23;20067;-77
2021/12/17 14:38:47;;;;;;;5.35;2.00;;;;;;;;;;6143111;23;20009;-76
2021/12/17 14:41:20;;;;;;;5.03;2.28;;;;;;;;;;6142976;23;20391;-78
2021/12/17 14:43:52;;;;;;;5.22;2.20;;;;;;;;;;6141640;23;20146;-76
2021/12/17 15:05:07;;;;;;;3.05;1.90;;;;;;;;;;6146158;23;20024;-76
2021/12/17 15:07:33;;;;;;;5.43;2.03;;;;;;;;;;6116652;23;20005;-80
2021/12/17 15:09:59;;;;;;;6.78;1.83;;;;;;;;;;6141006;23;20462;-76
2021/12/17 15:14:58;;;;;;;5.18;2.00;;;;;;;;;;6149012;23;20017;-79
2021/12/17 15:17:24;;;;;;;4.47;2.13;;;;;;;;;;6139080;23;20081;-73
2021/12/17 15:19:50;;;;;;;3.20;1.80;;;;;;;;;;6142513;23;20013;-79
2021/12/17 15:22:16;;;;;;;2.70;1.70;;;;;;;;;;6142885;23;20013;-77
2021/12/17 15:24:43;;;;;;;6.10;1.90;;;;;;;;;;6142858;23;20442;-73
2021/12/17 15:27:09;;;;;;;3.83;2.30;;;;;;;;;;6142965;23;20370;-81
2021/12/17 15:29:35;;;;;;;4.65;2.15;;;;;;;;;;6142503;23;20005;-73
2021/12/17 15:32:01;;;;;;;5.55;2.15;;;;;;;;;;6141043;23;20166;-76
2021/12/17 15:34:27;;;;;;;3.50;1.90;;;;;;;;;;6142617;23;20032;-74
2021/12/17 15:36:57;;;;;;;4.05;2.03;;;;;;;;;;6142512;23;20002;-80
2021/12/17 15:39:23;;;;;;;5.75;1.77;;;;;;;;;;6142612;23;20010;-74
2021/12/17 15:41:49;;;;;;;3.58;1.98;;;;;;;;;;6140937;23;20334;-74
2021/12/17 15:44:15;;;;;;;6.00;1.88;;;;;;;;;;6142461;23;20048;-73
2021/12/17 15:46:41;;;;;;;3.33;1.75;;;;;;;;;;6142656;23;20114;-76
2021/12/17 15:49:07;;;;;;;6.32;1.98;;;;;;;;;;6142602;23;20085;-79
2021/12/17 15:51:36;;;;;;;4.82;1.92;;;;;;;;;;6142527;23;20000;-79
2021/12/17 15:54:03;;;;;;;4.75;1.73;;;;;;;;;;6142468;23;20185;-74
2021/12/17 15:56:31;;;;;;;3.47;1.60;;;;;;;;;;6140652;23;20437;-77
2021/12/17 15:58:57;;;;;;;5.30;2.17;;;;;;;;;;6142939;23;20030;-73
2021/12/17 16:01:23;;;;;;;3.78;1.67;;;;;;;;;;6142053;23;20013;-77
2021/12/17 16:03:49;;;;;;;3.42;1.98;;;;;;;;;;6140548;23;20059;-79
2021/12/17 16:06:16;;;;;;;4.70;1.98;;;;;;;;;;6142432;23;20011;-76
2021/12/17 16:08:46;;;;;;;4.00;1.83;;;;;;;;;;6142636;23;20072;-80
2021/12/17 16:11:27;;;;;;;3.60;1.70;;;;;;;;;;6142717;23;20592;-78
2021/12/17 16:21:59;;;;;;;5.65;1.95;;;;;;;;;;6142010;23;20023;-73
2021/12/17 16:24:26;;;;;;;5.07;2.28;;;;;;;;;;6114596;23;20097;-78
2021/12/17 16:26:54;;;;;;;5.05;2.08;;;;;;;;;;6142204;23;20005;-79
2021/12/17 16:29:20;;;;;;;4.20;1.85;;;;;;;;;;6142566;23;20006;-73
2021/12/17 16:31:48;;;;;;;4.63;2.10;;;;;;;;;;6142059;23;20001;-73
2021/12/17 16:34:14;;;;;;;7.95;2.08;;;;;;;;;;6140799;23;20002;-78
2021/12/17 16:36:40;;;;;;;4.05;1.60;;;;;;;;;;6115983;23;20076;-80
2021/12/17 16:39:08;;;;;;;7.47;1.95;;;;;;;;;;6142292;23;20061;-73
2021/12/17 16:41:35;;;;;;;5.55;2.25;;;;;;;;;;6142249;23;20085;-73
2021/12/17 16:44:04;;;;;;;3.85;2.15;;;;;;;;;;6142569;23;20069;-80
2021/12/17 16:49:04;;;;;;;8.02;2.72;;;;;;;;;;6150958;23;20005;-73
2021/12/17 16:51:30;;;;;;;8.80;3.45;;;;;;;;;;6142509;23;20087;-76
2021/12/17 16:53:57;;;;;;;17.35;7.47;;;;;;;;;;6142059;23;20008;-78
2021/12/17 16:56:24;;;;;;;22.67;12.30;;;;;;;;;;6115569;23;20001;-74
2021/12/17 16:58:51;;;;;;;5.03;3.22;;;;;;;;;;6141804;23;20072;-73
2021/12/17 17:01:17;;;;;;;4.75;2.53;;;;;;;;;;6115354;23;20585;-73
2021/12/17 17:03:44;;;;;;;6.88;2.50;;;;;;;;;;6117589;23;20018;-73
2021/12/17 17:06:10;;;;;;;3.90;2.70;;;;;;;;;;6117666;23;20006;-77
2021/12/17 17:08:37;;;;;;;8.13;4.43;;;;;;;;;;6144192;23;20056;-79
2021/12/17 17:11:04;;;;;;;4.25;2.50;;;;;;;;;;6142133;23;20072;-80
2021/12/17 17:13:34;;;;;;;6.75;2.33;;;;;;;;;;6143593;23;20002;-77
2021/12/17 17:16:04;;;;;;;4.88;1.88;;;;;;;;;;6143559;23;20001;-80
2021/12/17 17:18:30;;;;;;;7.10;2.67;;;;;;;;;;6144042;23;20637;-78
2021/12/17 17:20:58;;;;;;;5.28;2.60;;;;;;;;;;6142726;23;20599;-74
2021/12/17 17:23:24;;;;;;;16.63;7.60;;;;;;;;;;6143948;23;20005;-76
2021/12/17 17:25:51;;;;;;;5.07;2.80;;;;;;;;;;6143649;23;20515;-73
2021/12/17 17:28:17;;;;;;;3.13;2.22;;;;;;;;;;6144250;23;20398;-75
2021/12/17 17:30:43;;;;;;;8.52;2.30;;;;;;;;;;6142199;23;20085;-78
2021/12/17 17:33:10;;;;;;;4.03;2.40;;;;;;;;;;6144212;23;20553;-73
2021/12/17 17:35:36;;;;;;;3.65;1.83;;;;;;;;;;6144189;23;20415;-78
2021/12/17 17:38:03;;;;;;;3.55;2.22;;;;;;;;;;6143803;23;20006;-77
2021/12/17 17:40:35;;;;;;;5.57;2.50;;;;;;;;;;6142146;23;20028;-73
2021/12/17 17:43:01;;;;;;;4.28;2.10;;;;;;;;;;6143892;23;20010;-73
2021/12/17 17:45:30;;;;;;;5.03;2.38;;;;;;;;;;6143826;23;20209;-74
2021/12/17 17:47:57;;;;;;;5.78;2.22;;;;;;;;;;6143933;23;20017;-79
2021/12/17 17:50:23;;;;;;;5.40;2.38;;;;;;;;;;6143795;23;20016;-81
2021/12/17 17:52:49;;;;;;;4.38;2.10;;;;;;;;;;6141669;23;20067;-77
2021/12/17 17:55:15;;;;;;;8.75;2.42;;;;;;;;;;6143310;23;20020;-77
2021/12/17 17:57:41;;;;;;;4.95;2.33;;;;;;;;;;6143776;23;20080;-73
2021/12/17 18:00:08;;;;;;;5.38;2.83;;;;;;;;;;6143513;23;20006;-79
2021/12/17 18:02:35;;;;;;;5.57;2.67;;;;;;;;;;6141982;23;20063;-77
2021/12/17 18:05:01;;;;;;;4.82;2.35;;;;;;;;;;6143633;23;20077;-79
2021/12/17 18:07:28;;;;;;;5.38;2.72;;;;;;;;;;6143247;23;20093;-76
2021/12/17 18:09:54;;;;;;;9.45;2.88;;;;;;;;;;6143630;23;20056;-73
2021/12/17 18:12:20;;;;;;;5.43;2.50;;;;;;;;;;6141742;23;20002;-73
2021/12/17 18:14:46;;;;;;;3.90;2.50;;;;;;;;;;6142887;23;20006;-75
2021/12/17 18:17:12;;;;;;;4.82;2.40;;;;;;;;;;6143455;23;20001;-74
2021/12/17 18:19:39;;;;;;;5.85;2.83;;;;;;;;;;6143393;23;20022;-73
2021/12/17 18:22:06;;;;;;;5.90;2.75;;;;;;;;;;6141604;23;20080;-79